createdAt,value
2023-11-23T00:00:12.485Z,99489.78
2023-11-23T00:02:40.990Z,99491.53
2023-11-23T00:05:09.795Z,99493.44
2023-11-23T00:07:39.183Z,99498.59
2023-11-23T00:10:08.029Z,99502.16
2023-11-23T00:12:35.546Z,99501.59
2023-11-23T00:15:03.382Z,99496.41
2023-11-23T00:17:31.964Z,99489.56
2023-11-23T00:20:00.154Z,99473.25
2023-11-23T00:22:27.860Z,99468.31
2023-11-23T00:24:55.533Z,99471.72
2023-11-23T00:27:23.031Z,99477.00
2023-11-23T00:29:50.786Z,99468.41
2023-11-23T00:32:19.101Z,99464.19
2023-11-23T00:34:46.547Z,99474.56
2023-11-23T00:37:14.050Z,99469.63
2023-11-23T00:39:41.489Z,99466.91
2023-11-23T00:42:09.059Z,99468.56
2023-11-23T00:44:38.517Z,99469.63
2023-11-23T00:47:06.229Z,99468.78
2023-11-23T00:49:35.123Z,99456.94
2023-11-23T00:52:02.689Z,99465.38
2023-11-23T00:54:31.407Z,99458.44
2023-11-23T00:56:58.879Z,99462.78
2023-11-23T00:59:26.311Z,99467.97
2023-11-23T01:01:55.335Z,99461.16
2023-11-23T01:04:22.964Z,99468.94
2023-11-23T01:06:50.436Z,99468.22
2023-11-23T01:09:18.963Z,99466.44
2023-11-23T01:11:46.458Z,99478.50
2023-11-23T01:14:14.147Z,99460.00
2023-11-23T01:16:41.699Z,99476.25
2023-11-23T01:19:09.197Z,99472.00
2023-11-23T01:21:36.693Z,99481.38
2023-11-23T01:24:04.862Z,99486.53
2023-11-23T01:26:32.549Z,99482.78
2023-11-23T01:28:59.961Z,99483.47
2023-11-23T01:31:28.277Z,99472.44
2023-11-23T01:33:55.799Z,99469.63
2023-11-23T01:36:23.316Z,99466.81
2023-11-23T01:38:51.115Z,99456.84
2023-11-23T01:41:18.516Z,99463.00
2023-11-23T01:43:47.187Z,99461.00
2023-11-23T01:46:15.326Z,99461.50
2023-11-23T01:48:45.602Z,99458.38
2023-11-23T01:51:15.246Z,99456.63
2023-11-23T01:53:43.228Z,99442.25
2023-11-23T01:56:11.886Z,99437.16
2023-11-23T01:58:39.567Z,99430.00
2023-11-23T02:01:07.164Z,99417.06
2023-11-23T02:03:34.895Z,99415.28
2023-11-23T02:06:02.559Z,99412.72
2023-11-23T02:08:30.062Z,99418.94
2023-11-23T02:10:58.131Z,99418.13
2023-11-23T02:13:26.072Z,99412.25
2023-11-23T02:15:53.536Z,99409.44
2023-11-23T02:18:21.046Z,99410.50
2023-11-23T02:20:48.570Z,99414.97
2023-11-23T02:23:16.042Z,99410.75
2023-11-23T02:25:43.661Z,99409.91
2023-11-23T02:28:11.333Z,99407.19
2023-11-23T02:30:38.786Z,99413.44
2023-11-23T02:33:09.164Z,99403.09
2023-11-23T02:35:36.890Z,99403.91
2023-11-23T02:38:04.311Z,99406.41
2023-11-23T02:40:32.025Z,99404.50
2023-11-23T02:42:59.798Z,99397.81
2023-11-23T02:45:27.637Z,99406.13
2023-11-23T02:47:55.310Z,99404.50
2023-11-23T02:50:22.808Z,99412.13
2023-11-23T02:52:50.180Z,99412.38
2023-11-23T02:55:18.400Z,99419.19
2023-11-23T02:57:46.632Z,99418.50
2023-11-23T03:00:14.428Z,99426.28
2023-11-23T03:02:42.014Z,99423.00
2023-11-23T03:05:11.694Z,99420.41
2023-11-23T03:07:40.102Z,99433.34
2023-11-23T03:10:07.992Z,99430.84
2023-11-23T03:12:35.392Z,99431.94
2023-11-23T03:15:04.375Z,99417.47
2023-11-23T03:17:33.368Z,99418.53
2023-11-23T03:20:00.860Z,99420.28
2023-11-23T03:22:28.308Z,99419.22
2023-11-23T03:24:56.888Z,99410.09
2023-11-23T03:27:24.465Z,99405.03
2023-11-23T03:29:52.053Z,99400.56
2023-11-23T03:32:19.521Z,99407.50
2023-11-23T03:34:47.086Z,99413.38
2023-11-23T03:37:14.629Z,99403.94
2023-11-23T03:39:42.105Z,99407.25
2023-11-23T03:42:10.312Z,99417.47
2023-11-23T03:44:37.742Z,99417.16
2023-11-23T03:47:05.382Z,99417.41
2023-11-23T03:49:32.833Z,99426.09
2023-11-23T03:52:00.316Z,99424.69
2023-11-23T03:54:28.010Z,99422.13
2023-11-23T03:56:55.619Z,99408.59
2023-11-23T03:59:23.107Z,99405.88
2023-11-23T04:01:50.681Z,99410.81
2023-11-23T04:04:18.330Z,99409.44
2023-11-23T04:06:46.798Z,99394.97
2023-11-23T04:09:14.491Z,99400.72
2023-11-23T04:11:42.243Z,99399.91
2023-11-23T04:14:09.678Z,99404.25
2023-11-23T04:16:39.936Z,99398.25
2023-11-23T04:19:07.339Z,99393.22
2023-11-23T04:21:34.782Z,99395.81
2023-11-23T04:24:02.242Z,99398.50
2023-11-23T04:26:29.974Z,99406.25
2023-11-23T04:28:57.380Z,99399.56
2023-11-23T04:31:27.514Z,99402.16
2023-11-23T04:33:54.975Z,99400.38
2023-11-23T04:36:23.477Z,99402.28
2023-11-23T04:38:50.989Z,99387.94
2023-11-23T04:41:18.408Z,99382.66
2023-11-23T04:43:45.829Z,99380.31
2023-11-23T04:46:14.068Z,99388.63
2023-11-23T04:48:41.506Z,99381.00
2023-11-23T04:51:09.104Z,99383.34
2023-11-23T04:53:36.492Z,99373.94
2023-11-23T04:56:03.981Z,99373.13
2023-11-23T04:58:31.425Z,99376.78
2023-11-23T05:01:00.256Z,99380.31
2023-11-23T05:03:31.299Z,99375.25
2023-11-23T05:05:59.091Z,99372.81
2023-11-23T05:08:26.546Z,99371.28
2023-11-23T05:10:54.607Z,99372.34
2023-11-23T05:13:22.084Z,99352.72
2023-11-23T05:15:49.530Z,99357.22
2023-11-23T05:18:17.125Z,99356.25
2023-11-23T05:20:44.669Z,99350.16
2023-11-23T05:23:12.154Z,99354.50
2023-11-23T05:25:39.574Z,99359.66
2023-11-23T05:28:07.421Z,99364.97
2023-11-23T05:30:35.698Z,99361.56
2023-11-23T05:33:03.334Z,99366.50
2023-11-23T05:35:32.022Z,99370.38
2023-11-23T05:37:59.740Z,99362.84
2023-11-23T05:40:27.156Z,99384.91
2023-11-23T05:43:01.217Z,99397.28
2023-11-23T05:45:33.757Z,99392.94
2023-11-23T05:48:01.383Z,99399.97
2023-11-23T05:50:28.854Z,99408.78
2023-11-23T05:52:56.277Z,99408.56
2023-11-23T05:55:23.728Z,99411.38
2023-11-23T05:57:51.179Z,99413.25
2023-11-23T06:00:19.088Z,99403.84
2023-11-23T06:02:46.689Z,99407.16
2023-11-23T06:05:16.236Z,99403.75
2023-11-23T06:07:43.788Z,99401.28
2023-11-23T06:10:12.947Z,99399.63
2023-11-23T06:12:41.553Z,99416.41
2023-11-23T06:15:10.301Z,99409.66
2023-11-23T06:17:37.836Z,99409.75
2023-11-23T06:20:08.971Z,99411.19
2023-11-23T06:22:36.863Z,99411.19
2023-11-23T06:25:05.059Z,99408.59
2023-11-23T06:27:34.891Z,99408.34
2023-11-23T06:30:02.634Z,99402.94
2023-11-23T06:32:30.352Z,99401.88
2023-11-23T06:34:57.852Z,99413.03
2023-11-23T06:37:25.283Z,99407.88
2023-11-23T06:39:55.841Z,99407.19
2023-11-23T06:42:23.472Z,99411.41
2023-11-23T06:44:51.172Z,99399.56
2023-11-23T06:47:18.617Z,99396.97
2023-11-23T06:49:46.282Z,99390.75
2023-11-23T06:52:13.673Z,99383.78
2023-11-23T06:54:41.073Z,99384.75
2023-11-23T06:57:09.105Z,99387.19
2023-11-23T06:59:37.185Z,99388.03
2023-11-23T07:02:05.310Z,99378.63
2023-11-23T07:04:33.273Z,99382.16
2023-11-23T07:07:00.737Z,99373.59
2023-11-23T07:09:28.186Z,99373.72
2023-11-23T07:11:55.866Z,99362.56
2023-11-23T07:14:23.377Z,99367.50
2023-11-23T07:16:53.107Z,99363.13
2023-11-23T07:19:20.990Z,99369.25
2023-11-23T07:21:51.276Z,99354.28
2023-11-23T07:24:19.416Z,99358.53
2023-11-23T07:26:47.074Z,99370.53
2023-11-23T07:29:14.547Z,99371.69
2023-11-23T07:31:43.712Z,99379.69
2023-11-23T07:34:12.281Z,99386.88
2023-11-23T07:36:39.710Z,99379.91
2023-11-23T07:39:09.397Z,99383.56
2023-11-23T07:41:38.043Z,99377.34
2023-11-23T07:44:05.719Z,99390.59
2023-11-23T07:46:33.290Z,99387.41
2023-11-23T07:49:01.323Z,99388.72
2023-11-23T07:51:28.773Z,99385.28
2023-11-23T07:53:56.265Z,99381.28
2023-11-23T07:56:23.807Z,99382.31
2023-11-23T07:58:51.267Z,99378.69
2023-11-23T08:01:18.649Z,99372.13
2023-11-23T08:03:46.195Z,99370.16
2023-11-23T08:06:13.742Z,99352.44
2023-11-23T08:08:41.235Z,99357.59
2023-11-23T08:11:11.004Z,99363.91
2023-11-23T08:13:38.403Z,99364.50
2023-11-23T08:16:05.712Z,99367.78
2023-11-23T08:18:40.280Z,99379.66
2023-11-23T08:21:14.729Z,99378.13
2023-11-23T08:23:42.688Z,99377.06
2023-11-23T08:26:12.177Z,99379.41
2023-11-23T08:28:39.677Z,99385.28
2023-11-23T08:31:08.609Z,99391.03
2023-11-23T08:33:36.170Z,99380.53
2023-11-23T08:36:03.768Z,99370.75
2023-11-23T08:38:31.447Z,99382.28
2023-11-23T08:40:58.953Z,99380.97
2023-11-23T08:43:26.444Z,99386.16
2023-11-23T08:45:53.953Z,99383.34
2023-11-23T08:48:23.665Z,99387.13
2023-11-23T08:50:51.286Z,99379.03
2023-11-23T08:53:18.880Z,99379.03
2023-11-23T08:55:49.423Z,99378.00
2023-11-23T08:58:16.951Z,99368.63
2023-11-23T09:00:44.744Z,99354.88
2023-11-23T09:03:13.293Z,99358.00
2023-11-23T09:05:40.904Z,99352.84
2023-11-23T09:08:08.492Z,99356.16
2023-11-23T09:10:36.068Z,99351.91
2023-11-23T09:13:03.739Z,99350.47
2023-11-23T09:15:31.453Z,99343.75
2023-11-23T09:17:59.517Z,99350.47
2023-11-23T09:20:27.568Z,99346.72
2023-11-23T09:22:55.920Z,99352.81
2023-11-23T09:25:23.451Z,99347.88
2023-11-23T09:27:51.433Z,99344.97
2023-11-23T09:30:19.059Z,99342.47
2023-11-23T09:32:46.520Z,99334.72
2023-11-23T09:35:14.102Z,99332.13
2023-11-23T09:37:41.701Z,99312.84
2023-11-23T09:40:10.645Z,99317.88
2023-11-23T09:42:39.870Z,99311.13
2023-11-23T09:45:13.750Z,99297.44
2023-11-23T09:47:42.398Z,99293.59
2023-11-23T09:50:12.835Z,99289.44
2023-11-23T09:52:41.245Z,99286.91
2023-11-23T09:55:09.668Z,99286.22
2023-11-23T09:57:38.282Z,99289.16
2023-11-23T10:00:10.512Z,99280.44
2023-11-23T10:02:40.461Z,99283.44
2023-11-23T10:05:10.470Z,99280.44
2023-11-23T10:07:38.119Z,99268.91
2023-11-23T10:10:06.721Z,99258.31
2023-11-23T10:12:37.432Z,99248.41
2023-11-23T10:15:07.680Z,99253.44
2023-11-23T10:17:35.399Z,99247.19
2023-11-23T10:20:17.257Z,99242.47
2023-11-23T10:22:48.993Z,99244.31
2023-11-23T10:25:34.430Z,99233.97
2023-11-23T10:28:02.686Z,99233.53
2023-11-23T10:30:31.414Z,99233.13
2023-11-23T10:33:01.089Z,99236.31
2023-11-23T10:35:39.693Z,99231.81
2023-11-23T10:38:08.783Z,99239.13
2023-11-23T10:40:36.755Z,99227.56
2023-11-23T10:43:04.850Z,99221.56
2023-11-23T10:45:34.868Z,99223.47
2023-11-23T10:48:04.287Z,99215.47
2023-11-23T10:50:33.032Z,99222.00
2023-11-23T10:53:03.020Z,99210.88
2023-11-23T10:55:30.561Z,99221.00
2023-11-23T10:58:14.828Z,99222.34
2023-11-23T11:00:43.514Z,99212.28
2023-11-23T11:03:12.717Z,99205.47
2023-11-23T11:05:47.766Z,99201.63
2023-11-23T11:08:22.252Z,99195.66
2023-11-23T11:10:52.401Z,99186.56
2023-11-23T11:13:22.632Z,99183.03
2023-11-23T11:16:08.064Z,99177.22
2023-11-23T11:18:36.392Z,99181.03
2023-11-23T11:21:14.153Z,99181.78
2023-11-23T11:23:55.349Z,99177.78
2023-11-23T11:26:34.500Z,99173.13
2023-11-23T11:29:07.051Z,99172.03
2023-11-23T11:31:39.609Z,99176.63
2023-11-23T11:34:15.683Z,99186.91
2023-11-23T11:36:43.287Z,99185.28
2023-11-23T11:39:13.827Z,99182.13
2023-11-23T11:41:42.679Z,99178.03
2023-11-23T11:44:11.721Z,99162.63
2023-11-23T11:46:40.065Z,99157.59
2023-11-23T11:49:08.090Z,99156.75
2023-11-23T11:51:35.726Z,99149.81
2023-11-23T11:54:05.470Z,99147.44
2023-11-23T11:56:33.003Z,99150.00
2023-11-23T11:59:00.487Z,99143.56
2023-11-23T12:01:27.927Z,99141.69
2023-11-23T12:03:55.492Z,99139.22
2023-11-23T12:06:23.113Z,99130.94
2023-11-23T12:08:51.034Z,99125.91
2023-11-23T12:11:32.093Z,99115.97
2023-11-23T12:14:01.075Z,99107.25
2023-11-23T12:16:36.436Z,99102.50
2023-11-23T12:19:22.336Z,99110.66
2023-11-23T12:21:57.711Z,99106.84
2023-11-23T12:24:29.449Z,99096.47
2023-11-23T12:26:56.818Z,99087.91
2023-11-23T12:29:32.251Z,99069.19
2023-11-23T12:32:03.046Z,99064.31
2023-11-23T12:34:32.131Z,99062.00
2023-11-23T12:36:59.781Z,99053.00
2023-11-23T12:39:29.417Z,99049.19
2023-11-23T12:41:57.215Z,99051.75
2023-11-23T12:44:24.728Z,99057.34
2023-11-23T12:46:53.044Z,99043.03
2023-11-23T12:49:21.391Z,99051.38
2023-11-23T12:51:49.010Z,99045.84
2023-11-23T12:54:16.651Z,99038.53
2023-11-23T12:56:44.213Z,99037.41
2023-11-23T12:59:11.742Z,99022.66
2023-11-23T13:01:40.344Z,99019.56
2023-11-23T13:04:09.772Z,99015.91
2023-11-23T13:06:38.834Z,99018.63
2023-11-23T13:09:13.037Z,99021.34
2023-11-23T13:11:41.175Z,99012.97
2023-11-23T13:14:10.583Z,99010.66
2023-11-23T13:16:38.118Z,99007.63
2023-11-23T13:19:16.957Z,99008.50
2023-11-23T13:21:54.993Z,99011.13
2023-11-23T13:24:22.628Z,98999.56
2023-11-23T13:26:50.962Z,99002.91
2023-11-23T13:29:19.676Z,99012.34
2023-11-23T13:31:47.557Z,99012.19
2023-11-23T13:34:16.209Z,99015.06
2023-11-23T13:36:43.951Z,99011.13
2023-11-23T13:39:15.331Z,99011.94
2023-11-23T13:41:42.797Z,99018.88
2023-11-23T13:44:11.925Z,99008.53
2023-11-23T13:46:39.594Z,98995.41
2023-11-23T13:49:11.561Z,98985.44
2023-11-23T13:51:39.914Z,98985.31
2023-11-23T13:54:09.782Z,98986.09
2023-11-23T13:56:40.617Z,98983.34
2023-11-23T13:59:10.041Z,98987.44
2023-11-23T14:01:38.330Z,98980.59
2023-11-23T14:04:07.049Z,98974.84
2023-11-23T14:06:34.679Z,98959.59
2023-11-23T14:09:04.021Z,98956.34
2023-11-23T14:11:31.728Z,98948.00
2023-11-23T14:13:59.495Z,98948.06
2023-11-23T14:16:27.963Z,98944.06
2023-11-23T14:18:55.479Z,98950.63
2023-11-23T14:21:22.961Z,98952.72
2023-11-23T14:23:51.146Z,98956.81
2023-11-23T14:26:22.045Z,98953.81
2023-11-23T14:28:50.384Z,98931.16
2023-11-23T14:31:20.393Z,98925.31
2023-11-23T14:33:48.658Z,98922.50
2023-11-23T14:36:16.320Z,98933.31
2023-11-23T14:38:43.842Z,98923.41
2023-11-23T14:41:12.787Z,98916.84
2023-11-23T14:43:40.279Z,98916.31
2023-11-23T14:46:08.639Z,98915.44
2023-11-23T14:48:36.696Z,98924.16
2023-11-23T14:51:05.716Z,98930.88
2023-11-23T14:53:33.211Z,98936.38
2023-11-23T14:56:01.698Z,98937.78
2023-11-23T14:58:29.395Z,98923.22
2023-11-23T15:00:57.004Z,98921.56
2023-11-23T15:03:27.384Z,98920.16
2023-11-23T15:05:54.934Z,98920.63
2023-11-23T15:08:22.372Z,98924.97
2023-11-23T15:10:49.856Z,98916.06
2023-11-23T15:13:22.836Z,98921.41
2023-11-23T15:15:53.991Z,98918.44
2023-11-23T15:18:23.506Z,98902.00
2023-11-23T15:20:51.006Z,98899.72
2023-11-23T15:23:20.690Z,98906.69
2023-11-23T15:25:48.976Z,98897.38
2023-11-23T15:28:16.385Z,98888.00
2023-11-23T15:30:44.153Z,98893.50
2023-11-23T15:33:11.893Z,98885.78
2023-11-23T15:35:42.371Z,98892.53
2023-11-23T15:38:11.549Z,98901.66
2023-11-23T15:40:39.042Z,98890.84
2023-11-23T15:43:06.562Z,98885.25
2023-11-23T15:45:34.061Z,98869.63
2023-11-23T15:48:01.730Z,98863.53
2023-11-23T15:50:32.779Z,98863.16
2023-11-23T15:53:00.599Z,98860.56
2023-11-23T15:55:29.039Z,98875.16
2023-11-23T15:57:56.871Z,98882.81
2023-11-23T16:00:27.623Z,98865.97
2023-11-23T16:02:57.518Z,98850.13
2023-11-23T16:05:28.754Z,98826.16
2023-11-23T16:07:56.740Z,98813.53
2023-11-23T16:10:24.275Z,98811.44
2023-11-23T16:12:52.632Z,98817.44
2023-11-23T16:15:20.363Z,98814.75
2023-11-23T16:17:48.420Z,98822.13
2023-11-23T16:20:16.687Z,98826.72
2023-11-23T16:22:48.088Z,98822.66
2023-11-23T16:25:16.950Z,98812.91
2023-11-23T16:27:44.733Z,98814.41
2023-11-23T16:30:15.079Z,98815.00
2023-11-23T16:32:43.572Z,98824.38
2023-11-23T16:35:14.509Z,98817.47
2023-11-23T16:37:42.308Z,98804.22
2023-11-23T16:40:13.477Z,98795.34
2023-11-23T16:42:43.083Z,98794.03
2023-11-23T16:45:13.287Z,98789.84
2023-11-23T16:47:44.883Z,98786.72
2023-11-23T16:50:13.930Z,98785.06
2023-11-23T16:52:41.566Z,98798.09
2023-11-23T16:55:09.782Z,98789.34
2023-11-23T16:57:37.692Z,98789.13
2023-11-23T17:00:06.070Z,98790.59
2023-11-23T17:02:33.705Z,98785.47
2023-11-23T17:05:01.866Z,98785.31
2023-11-23T17:07:29.447Z,98775.06
2023-11-23T17:09:56.978Z,98768.13
2023-11-23T17:12:24.476Z,98764.63
2023-11-23T17:14:53.810Z,98758.44
2023-11-23T17:17:21.689Z,98771.84
2023-11-23T17:19:49.095Z,98759.81
2023-11-23T17:22:16.505Z,98767.31
2023-11-23T17:24:45.311Z,98766.13
2023-11-23T17:27:15.766Z,98770.72
2023-11-23T17:29:44.425Z,98779.22
2023-11-23T17:32:11.922Z,98771.31
2023-11-23T17:34:40.320Z,98769.28
2023-11-23T17:37:08.242Z,98772.84
2023-11-23T17:39:35.746Z,98779.41
2023-11-23T17:42:03.280Z,98759.75
2023-11-23T17:44:30.718Z,98762.03
2023-11-23T17:46:58.187Z,98781.75
2023-11-23T17:49:26.992Z,98773.66
2023-11-23T17:51:55.942Z,98769.78
2023-11-23T17:54:24.039Z,98757.75
2023-11-23T17:56:51.516Z,98755.13
2023-11-23T17:59:30.887Z,98749.38
2023-11-23T18:02:06.877Z,98748.25
2023-11-23T18:04:34.383Z,98735.94
2023-11-23T18:07:02.494Z,98725.75
2023-11-23T18:09:31.696Z,98722.63
2023-11-23T18:12:01.691Z,98720.19
2023-11-23T18:14:31.489Z,98716.81
2023-11-23T18:16:59.089Z,98711.44
2023-11-23T18:19:26.535Z,98701.16
2023-11-23T18:21:54.032Z,98706.53
2023-11-23T18:24:21.599Z,98705.16
2023-11-23T18:26:49.071Z,98698.03
2023-11-23T18:29:16.514Z,98705.50
2023-11-23T18:31:43.982Z,98708.09
2023-11-23T18:34:12.254Z,98694.13
2023-11-23T18:36:40.067Z,98687.59
2023-11-23T18:39:10.691Z,98694.44
2023-11-23T18:41:38.472Z,98699.06
2023-11-23T18:44:06.086Z,98702.88
2023-11-23T18:46:33.611Z,98718.00
2023-11-23T18:49:03.479Z,98704.84
2023-11-23T18:51:30.967Z,98702.34
2023-11-23T18:53:58.457Z,98707.06
2023-11-23T18:56:25.986Z,98704.84
2023-11-23T18:58:53.455Z,98696.53
2023-11-23T19:01:21.218Z,98691.50
2023-11-23T19:03:49.468Z,98692.84
2023-11-23T19:06:18.520Z,98679.00
2023-11-23T19:08:46.660Z,98687.28
2023-11-23T19:11:15.201Z,98691.78
2023-11-23T19:13:42.865Z,98666.44
2023-11-23T19:16:10.568Z,98663.19
2023-11-23T19:18:39.275Z,98658.97
2023-11-23T19:21:07.018Z,98644.38
2023-11-23T19:23:34.884Z,98647.31
2023-11-23T19:26:06.922Z,98649.06
2023-11-23T19:28:34.703Z,98662.56
2023-11-23T19:31:06.478Z,98657.63
2023-11-23T19:33:36.111Z,98656.00
2023-11-23T19:36:04.088Z,98638.81
2023-11-23T19:38:31.517Z,98638.13
2023-11-23T19:41:02.529Z,98638.97
2023-11-23T19:43:31.066Z,98628.81
2023-11-23T19:45:59.040Z,98631.41
2023-11-23T19:48:27.084Z,98631.50
2023-11-23T19:50:54.910Z,98622.94
2023-11-23T19:53:24.077Z,98622.56
2023-11-23T19:55:52.395Z,98626.97
2023-11-23T19:58:19.910Z,98630.19
2023-11-23T20:00:47.683Z,98624.22
2023-11-23T20:03:15.188Z,98620.31
2023-11-23T20:05:43.555Z,98613.03
2023-11-23T20:08:13.629Z,98621.31
2023-11-23T20:10:44.973Z,98620.31
2023-11-23T20:13:12.891Z,98615.09
2023-11-23T20:15:40.839Z,98602.47
2023-11-23T20:18:08.350Z,98597.59
2023-11-23T20:20:35.816Z,98586.69
2023-11-23T20:23:03.966Z,98588.84
2023-11-23T20:25:31.486Z,98584.59
2023-11-23T20:27:58.929Z,98582.19
2023-11-23T20:30:26.663Z,98572.31
2023-11-23T20:32:54.274Z,98551.69
2023-11-23T20:35:23.581Z,98547.31
2023-11-23T20:37:54.210Z,98546.03
2023-11-23T20:40:22.851Z,98542.47
2023-11-23T20:42:50.379Z,98537.22
2023-11-23T20:45:17.955Z,98520.72
2023-11-23T20:47:45.994Z,98521.88
2023-11-23T20:50:14.959Z,98502.88
2023-11-23T20:52:42.904Z,98500.78
2023-11-23T20:55:13.164Z,98496.72
2023-11-23T20:57:41.869Z,98481.47
2023-11-23T21:00:13.012Z,98490.22
2023-11-23T21:02:40.844Z,98478.53
2023-11-23T21:05:09.480Z,98484.88
2023-11-23T21:07:39.335Z,98496.88
2023-11-23T21:10:08.950Z,98488.75
2023-11-23T21:12:36.814Z,98485.53
2023-11-23T21:15:05.554Z,98491.38
2023-11-23T21:17:34.831Z,98478.88
2023-11-23T21:20:03.026Z,98477.88
2023-11-23T21:22:30.681Z,98477.56
2023-11-23T21:24:58.300Z,98458.25
2023-11-23T21:27:32.575Z,98452.41
2023-11-23T21:30:00.072Z,98461.00
2023-11-23T21:32:27.790Z,98454.69
2023-11-23T21:34:55.518Z,98443.66
2023-11-23T21:37:22.922Z,98442.66
2023-11-23T21:39:50.392Z,98444.13
2023-11-23T21:42:18.951Z,98441.38
2023-11-23T21:44:46.736Z,98437.28
2023-11-23T21:47:14.213Z,98430.81
2023-11-23T21:49:45.179Z,98421.06
2023-11-23T21:52:13.196Z,98411.69
2023-11-23T21:54:47.128Z,98400.59
2023-11-23T21:57:20.646Z,98380.63
2023-11-23T21:59:48.129Z,98378.19
2023-11-23T22:02:15.677Z,98383.88
2023-11-23T22:04:45.842Z,98372.84
2023-11-23T22:07:13.387Z,98360.50
2023-11-23T22:09:40.823Z,98344.69
2023-11-23T22:12:08.360Z,98353.06
2023-11-23T22:14:37.502Z,98350.22
2023-11-23T22:17:05.307Z,98334.47
2023-11-23T22:19:32.653Z,98328.16
2023-11-23T22:21:59.968Z,98325.50
2023-11-23T22:24:28.213Z,98324.91
2023-11-23T22:26:56.064Z,98316.75
2023-11-23T22:29:23.627Z,98309.06
2023-11-23T22:31:51.677Z,98302.00
2023-11-23T22:34:19.057Z,98303.00
2023-11-23T22:36:46.654Z,98301.81
2023-11-23T22:39:15.281Z,98299.09
2023-11-23T22:41:44.443Z,98313.25
2023-11-23T22:44:13.671Z,98310.28
2023-11-23T22:46:42.038Z,98305.78
2023-11-23T22:49:09.683Z,98306.03
2023-11-23T22:51:37.162Z,98314.41
2023-11-23T22:54:04.774Z,98314.78
2023-11-23T22:56:32.206Z,98310.66
2023-11-23T22:58:59.707Z,98305.34
2023-11-23T23:01:28.953Z,98305.25
2023-11-23T23:03:56.595Z,98314.38
2023-11-23T23:06:24.169Z,98303.88
2023-11-23T23:08:51.640Z,98310.38
2023-11-23T23:11:19.165Z,98304.34
2023-11-23T23:13:46.726Z,98303.25
2023-11-23T23:16:15.253Z,98287.72
2023-11-23T23:18:42.723Z,98280.31
2023-11-23T23:21:10.240Z,98276.09
2023-11-23T23:23:37.675Z,98277.38
2023-11-23T23:26:05.094Z,98263.22
2023-11-23T23:28:33.032Z,98257.84
2023-11-23T23:31:00.640Z,98258.53
2023-11-23T23:33:28.240Z,98252.31
2023-11-23T23:35:55.856Z,98241.63
2023-11-23T23:38:23.418Z,98241.78
2023-11-23T23:40:51.630Z,98228.28
2023-11-23T23:43:19.484Z,98218.81
2023-11-23T23:45:47.457Z,98218.69
2023-11-23T23:48:15.360Z,98196.38
2023-11-23T23:50:42.763Z,98194.19
2023-11-23T23:53:10.174Z,98192.56
2023-11-23T23:55:37.570Z,98181.50
2023-11-23T23:58:05.821Z,98173.47
